CYSK

Sanikiluaq Airport

Sanikiluaq, Canada
METAR CYSK 192300Z 24014KT 15SM SKC M32/M36 A3035 RMK LAST OBS/NEXT 201300UTC SLP285
Observed Flight Rules
Feb-19 @ 23:00 UTC (8 hours ago) Visual Flight Rules
Wind Visibility Clouds
240° at 14 knots 15 miles
  • Clear skies
Temperatures Readings
Current -32°C / -26°F
Dewpoint -36°C / -33°F
Humidity 67%
Altimeter 30.35" Hg
Pressure 1028.5 hPa
Elevation 26
METAR CYSK 192300Z 24014KT 15SM SKC M32/M36 A3035 RMK LAST OBS/NEXT 201300UTC SLP285
Observed Flight Rules
Feb-19 @ 23:00 UTC
(8 hours ago)
VFR
Wind Visibility
240° at 14 knots 15 miles
Clouds
  • Clear skies
Temperature Dewpoint
-32°C / -26°F -36°C / -33°F
Humidity Altimeter Pressure
67% 30.35" Hg 1028.5 hPa